עמוד ראשי
METAR-TAF:

METAR-TAF

שדות תעופה :

Pucallpa, פרו

קו רוחב: 08-25S, קו אורך: 074-36W, גובה: 148מטר

תצפית מזג אוויר נוכחית

הדו"ח נערך לפני 23דקות, בשעה 10:00 UTC
רוח רגועה
טמפרטורת 26 צלסיוס
לחות 94%
לחץ 1011 hPa
ראות 10 קילומטר או יותר
עננים פזורים בגובה 1500רגל

METAR: SPCL 121000Z 00000KT 9999 SCT015 26/25 Q1011 RMK PP000

זמן: 05:23 (10:23 UTC)

תחזית

הדו"ח נערך לפני 5 שעות ו 23דקות, בשעה 05:00 UTC
תחזית בתוקף מ 12 ב 06 UTC עד 13 ב 06 UTC
רוח 3קשר מכיוון צפון/צפון-מזרח
ראות 10 קילומטר או יותר
עננים פזורים בגובה 1500רגל
עננים פזורים בגובה 10000רגל
זמנית מ -
12 ב 10 UTC עד 12 ב 12 UTC
ראות: 5000מטר
עננים בינוניים בגובה 1000רגל
אד
זמנית מ -
13 ב 02 UTC עד 13 ב 06 UTC
ראות: 3000מטר
עננים בינוניים בגובה 1200רגל
עננים בינוניים בגובה 7000רגל
גשם,

TAF: SPCL 120500Z 1206/1306 03003KT 9999 SCT015 SCT100 TX33/1219Z TN25/1211Z TEMPO 1210/1212 5000 BR BKN010 TEMPO 1302/1306 3000 RA BKN012 BKN070

תצפיות ותחזיות מזג אוויר לגבי יותר מ- 4,000 שדות תעופה ברחבי העולם. דוחות METAR ו- TAF.

התחנות הזמינות מסומנות בנקודות צהובות ואדומות על גבי המפה.

העבר את העכבר לנקודה הצבעונית על מנת לראות את שם התחנה.

לאחר מכן, לחץ כדי לראות את תוכן ואת תחזיות מזג האוויר.

כדי לשנות את המפה: לחץ על הכפתורים הירוקים עם הפלוס השחור כדי להתקרב; על הכפתור הירוק עם המקף כדי להתרחק; או בחיצים הירוקים למפות סמוכות.


METAR-TAF: